sensor_id;sensor_type;location;lat;lon;timestamp;pressure;altitude;pressure_sealevel;temperature;humidity
3122;BME280;1571;52.524;14.104;2022-07-01T00:01:47;100739.44;;;19.14;100.00
3122;BME280;1571;52.524;14.104;2022-07-01T00:04:18;100763.31;;;18.99;100.00
3122;BME280;1571;52.524;14.104;2022-07-01T00:06:46;100766.84;;;19.00;100.00
3122;BME280;1571;52.524;14.104;2022-07-01T00:09:14;100761.38;;;18.91;100.00
3122;BME280;1571;52.524;14.104;2022-07-01T00:11:42;100776.69;;;18.81;100.00
3122;BME280;1571;52.524;14.104;2022-07-01T00:14:10;100780.66;;;18.77;100.00
3122;BME280;1571;52.524;14.104;2022-07-01T00:16:39;100777.25;;;18.75;100.00
3122;BME280;1571;52.524;14.104;2022-07-01T00:19:07;100786.56;;;18.90;100.00
3122;BME280;1571;52.524;14.104;2022-07-01T00:21:37;100769.00;;;18.96;100.00
3122;BME280;1571;52.524;14.104;2022-07-01T00:24:05;100758.88;;;18.80;100.00
3122;BME280;1571;52.524;14.104;2022-07-01T00:26:34;100757.63;;;18.65;100.00
3122;BME280;1571;52.524;14.104;2022-07-01T00:29:02;100765.66;;;18.75;100.00
3122;BME280;1571;52.524;14.104;2022-07-01T00:31:31;100755.19;;;18.81;100.00
3122;BME280;1571;52.524;14.104;2022-07-01T00:34:00;100749.56;;;18.65;100.00
3122;BME280;1571;52.524;14.104;2022-07-01T00:36:28;100752.81;;;18.78;100.00
3122;BME280;1571;52.524;14.104;2022-07-01T00:38:58;100750.13;;;18.78;100.00
3122;BME280;1571;52.524;14.104;2022-07-01T00:41:27;100747.41;;;18.78;100.00
3122;BME280;1571;52.524;14.104;2022-07-01T00:43:55;100744.97;;;18.75;100.00
3122;BME280;1571;52.524;14.104;2022-07-01T00:46:24;100743.34;;;18.64;100.00
3122;BME280;1571;52.524;14.104;2022-07-01T00:48:55;100738.19;;;18.71;100.00
3122;BME280;1571;52.524;14.104;2022-07-01T00:51:23;100735.44;;;18.63;100.00
3122;BME280;1571;52.524;14.104;2022-07-01T00:53:52;100719.28;;;18.63;100.00
3122;BME280;1571;52.524;14.104;2022-07-01T00:56:21;100718.66;;;18.51;100.00
3122;BME280;1571;52.524;14.104;2022-07-01T00:58:50;100716.50;;;18.55;100.00
3122;BME280;1571;52.524;14.104;2022-07-01T01:01:18;100730.13;;;18.43;100.00
3122;BME280;1571;52.524;14.104;2022-07-01T01:03:48;100733.47;;;18.55;100.00
3122;BME280;1571;52.524;14.104;2022-07-01T01:06:17;100717.63;;;18.52;100.00
3122;BME280;1571;52.524;14.104;2022-07-01T01:08:46;100717.97;;;18.39;100.00
3122;BME280;1571;52.524;14.104;2022-07-01T01:11:15;100728.38;;;18.52;100.00
3122;BME280;1571;52.524;14.104;2022-07-01T01:13:45;100726.16;;;18.47;100.00
3122;BME280;1571;52.524;14.104;2022-07-01T01:16:18;100719.09;;;18.46;100.00
3122;BME280;1571;52.524;14.104;2022-07-01T01:18:46;100704.69;;;18.38;100.00
3122;BME280;1571;52.524;14.104;2022-07-01T01:21:17;100707.25;;;18.29;100.00
3122;BME280;1571;52.524;14.104;2022-07-01T01:23:46;100705.59;;;18.19;100.00
3122;BME280;1571;52.524;14.104;2022-07-01T01:26:16;100722.81;;;18.26;100.00
3122;BME280;1571;52.524;14.104;2022-07-01T01:28:44;100733.59;;;18.16;100.00
3122;BME280;1571;52.524;14.104;2022-07-01T01:31:13;100749.69;;;18.26;100.00
3122;BME280;1571;52.524;14.104;2022-07-01T01:33:42;100749.97;;;18.23;100.00
3122;BME280;1571;52.524;14.104;2022-07-01T01:36:10;100743.34;;;18.27;100.00
3122;BME280;1571;52.524;14.104;2022-07-01T01:38:40;100744.91;;;18.10;100.00
3122;BME280;1571;52.524;14.104;2022-07-01T01:41:08;100741.28;;;18.01;100.00
3122;BME280;1571;52.524;14.104;2022-07-01T01:43:36;100742.22;;;18.10;100.00
3122;BME280;1571;52.524;14.104;2022-07-01T01:46:05;100751.72;;;18.04;100.00
3122;BME280;1571;52.524;14.104;2022-07-01T01:48:33;100751.88;;;18.13;100.00
3122;BME280;1571;52.524;14.104;2022-07-01T01:51:01;100750.16;;;18.12;100.00
3122;BME280;1571;52.524;14.104;2022-07-01T01:53:30;100741.13;;;18.13;100.00
3122;BME280;1571;52.524;14.104;2022-07-01T01:55:59;100733.28;;;18.19;100.00
3122;BME280;1571;52.524;14.104;2022-07-01T01:58:27;100747.22;;;17.95;100.00
3122;BME280;1571;52.524;14.104;2022-07-01T02:00:55;100765.84;;;18.06;100.00
3122;BME280;1571;52.524;14.104;2022-07-01T02:03:24;100772.50;;;18.02;100.00
3122;BME280;1571;52.524;14.104;2022-07-01T02:05:53;100773.75;;;18.18;100.00
3122;BME280;1571;52.524;14.104;2022-07-01T02:08:21;100767.28;;;18.10;100.00
3122;BME280;1571;52.524;14.104;2022-07-01T02:10:49;100760.22;;;18.00;100.00
3122;BME280;1571;52.524;14.104;2022-07-01T02:13:22;100772.47;;;18.12;100.00
3122;BME280;1571;52.524;14.104;2022-07-01T02:15:50;100777.16;;;18.00;100.00
3122;BME280;1571;52.524;14.104;2022-07-01T02:18:18;100790.59;;;18.00;100.00
3122;BME280;1571;52.524;14.104;2022-07-01T02:20:46;100786.19;;;17.80;100.00
3122;BME280;1571;52.524;14.104;2022-07-01T02:23:15;100792.00;;;17.85;100.00
3122;BME280;1571;52.524;14.104;2022-07-01T02:25:43;100789.63;;;18.01;100.00
3122;BME280;1571;52.524;14.104;2022-07-01T02:28:13;100779.44;;;17.95;100.00
3122;BME280;1571;52.524;14.104;2022-07-01T02:30:42;100767.69;;;17.96;100.00
3122;BME280;1571;52.524;14.104;2022-07-01T02:33:11;100744.22;;;17.98;100.00
3122;BME280;1571;52.524;14.104;2022-07-01T02:35:41;100741.28;;;18.01;100.00
3122;BME280;1571;52.524;14.104;2022-07-01T02:38:15;100749.34;;;18.01;100.00
3122;BME280;1571;52.524;14.104;2022-07-01T02:40:44;100746.38;;;17.85;100.00
3122;BME280;1571;52.524;14.104;2022-07-01T02:43:12;100742.41;;;17.89;100.00
3122;BME280;1571;52.524;14.104;2022-07-01T02:45:40;100739.72;;;17.89;100.00
3122;BME280;1571;52.524;14.104;2022-07-01T02:48:10;100742.81;;;17.94;100.00
3122;BME280;1571;52.524;14.104;2022-07-01T02:50:38;100755.13;;;17.87;100.00
3122;BME280;1571;52.524;14.104;2022-07-01T02:53:07;100752.19;;;17.90;100.00
3122;BME280;1571;52.524;14.104;2022-07-01T02:55:35;100756.25;;;18.04;100.00
3122;BME280;1571;52.524;14.104;2022-07-01T02:58:03;100749.44;;;18.09;100.00
3122;BME280;1571;52.524;14.104;2022-07-01T03:00:31;100751.28;;;18.09;100.00
3122;BME280;1571;52.524;14.104;2022-07-01T03:02:59;100746.66;;;18.01;100.00
3122;BME280;1571;52.524;14.104;2022-07-01T03:05:29;100749.56;;;18.08;100.00
3122;BME280;1571;52.524;14.104;2022-07-01T03:07:57;100740.69;;;18.07;100.00
3122;BME280;1571;52.524;14.104;2022-07-01T03:10:26;100727.94;;;18.09;100.00
3122;BME280;1571;52.524;14.104;2022-07-01T03:12:54;100717.75;;;18.23;100.00
3122;BME280;1571;52.524;14.104;2022-07-01T03:15:22;100707.75;;;18.05;100.00
3122;BME280;1571;52.524;14.104;2022-07-01T03:17:50;100713.97;;;18.06;100.00
3122;BME280;1571;52.524;14.104;2022-07-01T03:20:19;100730.50;;;18.11;100.00
3122;BME280;1571;52.524;14.104;2022-07-01T03:22:48;100747.88;;;18.17;100.00
3122;BME280;1571;52.524;14.104;2022-07-01T03:25:17;100755.34;;;18.23;100.00
3122;BME280;1571;52.524;14.104;2022-07-01T03:27:46;100750.81;;;18.33;100.00
3122;BME280;1571;52.524;14.104;2022-07-01T03:30:15;100753.31;;;18.44;100.00
3122;BME280;1571;52.524;14.104;2022-07-01T03:32:45;100758.97;;;18.41;100.00
3122;BME280;1571;52.524;14.104;2022-07-01T03:35:13;100759.97;;;18.40;100.00
3122;BME280;1571;52.524;14.104;2022-07-01T03:38:01;100756.41;;;18.49;100.00
3122;BME280;1571;52.524;14.104;2022-07-01T03:40:30;100769.03;;;18.39;100.00
3122;BME280;1571;52.524;14.104;2022-07-01T03:42:59;100780.25;;;18.25;100.00
3122;BME280;1571;52.524;14.104;2022-07-01T03:45:27;100783.88;;;18.43;100.00
3122;BME280;1571;52.524;14.104;2022-07-01T03:47:55;100780.13;;;18.64;100.00
3122;BME280;1571;52.524;14.104;2022-07-01T03:50:24;100779.75;;;18.96;100.00
3122;BME280;1571;52.524;14.104;2022-07-01T03:52:53;100755.53;;;18.96;100.00
3122;BME280;1571;52.524;14.104;2022-07-01T03:55:41;100750.56;;;19.01;100.00
3122;BME280;1571;52.524;14.104;2022-07-01T03:58:10;100727.44;;;19.26;100.00
3122;BME280;1571;52.524;14.104;2022-07-01T04:00:39;100707.41;;;19.39;100.00
3122;BME280;1571;52.524;14.104;2022-07-01T04:03:07;100696.22;;;19.33;100.00
3122;BME280;1571;52.524;14.104;2022-07-01T04:05:37;100690.22;;;19.40;100.00
3122;BME280;1571;52.524;14.104;2022-07-01T04:08:07;100682.84;;;19.78;100.00
3122;BME280;1571;52.524;14.104;2022-07-01T04:10:39;100684.69;;;20.03;100.00
3122;BME280;1571;52.524;14.104;2022-07-01T04:13:08;100684.53;;;20.05;100.00
3122;BME280;1571;52.524;14.104;2022-07-01T04:15:58;100694.78;;;20.01;100.00
3122;BME280;1571;52.524;14.104;2022-07-01T04:18:27;100699.91;;;20.12;100.00
3122;BME280;1571;52.524;14.104;2022-07-01T04:20:56;100690.16;;;20.20;100.00
3122;BME280;1571;52.524;14.104;2022-07-01T04:23:42;100692.50;;;20.41;100.00
3122;BME280;1571;52.524;14.104;2022-07-01T04:26:10;100685.09;;;20.51;100.00
3122;BME280;1571;52.524;14.104;2022-07-01T04:29:00;100686.06;;;20.42;100.00
3122;BME280;1571;52.524;14.104;2022-07-01T04:31:28;100681.91;;;20.55;100.00
3122;BME280;1571;52.524;14.104;2022-07-01T04:33:56;100677.31;;;20.74;100.00
3122;BME280;1571;52.524;14.104;2022-07-01T04:36:25;100680.25;;;20.54;100.00
3122;BME280;1571;52.524;14.104;2022-07-01T04:38:53;100676.16;;;20.85;100.00
3122;BME280;1571;52.524;14.104;2022-07-01T04:41:21;100667.56;;;20.89;100.00
3122;BME280;1571;52.524;14.104;2022-07-01T04:44:10;100662.84;;;20.91;100.00
3122;BME280;1571;52.524;14.104;2022-07-01T04:46:38;100658.16;;;21.02;100.00
3122;BME280;1571;52.524;14.104;2022-07-01T04:49:06;100653.63;;;21.27;100.00
3122;BME280;1571;52.524;14.104;2022-07-01T04:51:35;100661.25;;;21.31;100.00
3122;BME280;1571;52.524;14.104;2022-07-01T04:54:04;100653.00;;;21.41;100.00
3122;BME280;1571;52.524;14.104;2022-07-01T04:56:34;100664.47;;;21.43;100.00
3122;BME280;1571;52.524;14.104;2022-07-01T04:59:12;100660.44;;;21.55;100.00
3122;BME280;1571;52.524;14.104;2022-07-01T05:01:41;100670.38;;;21.63;100.00
3122;BME280;1571;52.524;14.104;2022-07-01T05:04:09;100662.28;;;21.47;100.00
3122;BME280;1571;52.524;14.104;2022-07-01T05:06:38;100660.56;;;21.70;100.00
3122;BME280;1571;52.524;14.104;2022-07-01T05:09:06;100657.19;;;21.68;100.00
3122;BME280;1571;52.524;14.104;2022-07-01T05:11:35;100660.38;;;21.88;100.00
3122;BME280;1571;52.524;14.104;2022-07-01T05:14:03;100655.88;;;21.64;100.00
3122;BME280;1571;52.524;14.104;2022-07-01T05:16:33;100654.78;;;22.06;100.00
3122;BME280;1571;52.524;14.104;2022-07-01T05:19:01;100654.78;;;22.06;100.00
3122;BME280;1571;52.524;14.104;2022-07-01T05:21:48;100654.78;;;22.06;100.00
3122;BME280;1571;52.524;14.104;2022-07-01T05:24:28;100652.78;;;22.00;100.00
3122;BME280;1571;52.524;14.104;2022-07-01T05:26:58;100651.91;;;22.08;100.00
3122;BME280;1571;52.524;14.104;2022-07-01T05:29:35;100641.38;;;22.37;100.00
3122;BME280;1571;52.524;14.104;2022-07-01T05:32:04;100633.28;;;22.69;100.00
3122;BME280;1571;52.524;14.104;2022-07-01T05:34:32;100636.06;;;22.52;100.00
3122;BME280;1571;52.524;14.104;2022-07-01T05:37:01;100627.31;;;22.73;100.00
3122;BME280;1571;52.524;14.104;2022-07-01T05:39:29;100619.59;;;22.93;100.00
3122;BME280;1571;52.524;14.104;2022-07-01T05:41:57;100620.56;;;23.23;100.00
3122;BME280;1571;52.524;14.104;2022-07-01T05:44:25;100617.56;;;23.18;100.00
3122;BME280;1571;52.524;14.104;2022-07-01T05:46:55;100626.97;;;23.31;100.00
3122;BME280;1571;52.524;14.104;2022-07-01T05:49:23;100630.56;;;23.23;100.00
3122;BME280;1571;52.524;14.104;2022-07-01T05:51:51;100633.34;;;23.38;100.00
3122;BME280;1571;52.524;14.104;2022-07-01T05:54:19;100640.72;;;23.44;100.00
3122;BME280;1571;52.524;14.104;2022-07-01T05:56:48;100642.06;;;23.25;100.00
3122;BME280;1571;52.524;14.104;2022-07-01T05:59:16;100641.59;;;23.44;100.00
3122;BME280;1571;52.524;14.104;2022-07-01T06:01:44;100620.88;;;23.89;100.00
3122;BME280;1571;52.524;14.104;2022-07-01T06:04:14;100616.31;;;23.67;100.00
3122;BME280;1571;52.524;14.104;2022-07-01T06:06:43;100618.09;;;23.60;100.00
3122;BME280;1571;52.524;14.104;2022-07-01T06:09:11;100622.81;;;23.81;100.00
3122;BME280;1571;52.524;14.104;2022-07-01T06:11:39;100622.81;;;23.96;100.00
3122;BME280;1571;52.524;14.104;2022-07-01T06:14:07;100611.50;;;24.22;100.00
3122;BME280;1571;52.524;14.104;2022-07-01T06:16:35;100601.91;;;24.70;100.00
3122;BME280;1571;52.524;14.104;2022-07-01T06:19:04;100601.84;;;24.64;100.00
3122;BME280;1571;52.524;14.104;2022-07-01T06:21:34;100600.34;;;24.61;100.00
3122;BME280;1571;52.524;14.104;2022-07-01T06:24:03;100600.94;;;24.57;100.00
3122;BME280;1571;52.524;14.104;2022-07-01T06:26:31;100587.03;;;24.88;100.00
3122;BME280;1571;52.524;14.104;2022-07-01T06:28:59;100584.59;;;25.36;99.58
3122;BME280;1571;52.524;14.104;2022-07-01T06:31:27;100585.41;;;25.58;96.97
3122;BME280;1571;52.524;14.104;2022-07-01T06:33:56;100591.69;;;25.59;95.68
3122;BME280;1571;52.524;14.104;2022-07-01T06:36:24;100593.19;;;25.68;95.52
3122;BME280;1571;52.524;14.104;2022-07-01T06:38:53;100587.97;;;25.94;93.27
3122;BME280;1571;52.524;14.104;2022-07-01T06:41:22;100586.16;;;26.08;91.72
3122;BME280;1571;52.524;14.104;2022-07-01T06:43:57;100583.31;;;26.23;91.92
3122;BME280;1571;52.524;14.104;2022-07-01T06:46:27;100576.88;;;25.96;91.65
3122;BME280;1571;52.524;14.104;2022-07-01T06:48:55;100576.31;;;26.07;93.92
3122;BME280;1571;52.524;14.104;2022-07-01T06:51:25;100577.16;;;26.08;92.55
3122;BME280;1571;52.524;14.104;2022-07-01T06:53:55;100580.47;;;25.96;92.66
3122;BME280;1571;52.524;14.104;2022-07-01T06:56:24;100583.72;;;25.85;91.67
3122;BME280;1571;52.524;14.104;2022-07-01T06:58:52;100582.69;;;26.21;92.34
3122;BME280;1571;52.524;14.104;2022-07-01T07:01:20;100581.22;;;26.80;89.39
3122;BME280;1571;52.524;14.104;2022-07-01T07:03:49;100579.66;;;26.51;88.57
3122;BME280;1571;52.524;14.104;2022-07-01T07:06:17;100584.59;;;26.82;86.19
3122;BME280;1571;52.524;14.104;2022-07-01T07:08:45;100587.91;;;26.23;88.59
3122;BME280;1571;52.524;14.104;2022-07-01T07:11:15;100576.38;;;26.69;87.76
3122;BME280;1571;52.524;14.104;2022-07-01T07:13:43;100564.03;;;26.93;84.94
3122;BME280;1571;52.524;14.104;2022-07-01T07:16:11;100562.34;;;26.78;84.06
3122;BME280;1571;52.524;14.104;2022-07-01T07:18:39;100565.75;;;27.00;84.33
3122;BME280;1571;52.524;14.104;2022-07-01T07:21:07;100570.19;;;27.48;84.67
3122;BME280;1571;52.524;14.104;2022-07-01T07:23:36;100565.38;;;27.37;78.90
3122;BME280;1571;52.524;14.104;2022-07-01T07:26:04;100558.16;;;27.76;77.84
3122;BME280;1571;52.524;14.104;2022-07-01T07:28:34;100571.81;;;27.76;76.39
3122;BME280;1571;52.524;14.104;2022-07-01T07:31:02;100565.09;;;27.72;75.67
3122;BME280;1571;52.524;14.104;2022-07-01T07:33:31;100572.06;;;27.61;74.85
3122;BME280;1571;52.524;14.104;2022-07-01T07:35:59;100557.75;;;27.92;72.35
3122;BME280;1571;52.524;14.104;2022-07-01T07:38:27;100554.41;;;27.77;73.96
3122;BME280;1571;52.524;14.104;2022-07-01T07:40:56;100574.94;;;27.99;70.53
3122;BME280;1571;52.524;14.104;2022-07-01T07:43:24;100560.75;;;28.74;69.62
3122;BME280;1571;52.524;14.104;2022-07-01T07:45:54;100569.69;;;28.56;68.65
3122;BME280;1571;52.524;14.104;2022-07-01T07:48:22;100563.34;;;28.62;68.58
3122;BME280;1571;52.524;14.104;2022-07-01T07:50:50;100560.19;;;28.14;69.95
3122;BME280;1571;52.524;14.104;2022-07-01T07:53:18;100557.75;;;27.79;70.04
3122;BME280;1571;52.524;14.104;2022-07-01T07:55:46;100554.31;;;28.17;70.46
3122;BME280;1571;52.524;14.104;2022-07-01T07:58:15;100551.03;;;27.81;71.76
3122;BME280;1571;52.524;14.104;2022-07-01T08:00:44;100552.31;;;27.79;70.12
3122;BME280;1571;52.524;14.104;2022-07-01T08:03:13;100556.25;;;27.83;69.31
3122;BME280;1571;52.524;14.104;2022-07-01T08:05:42;100549.44;;;28.19;70.40
3122;BME280;1571;52.524;14.104;2022-07-01T08:08:10;100544.53;;;27.76;70.71
3122;BME280;1571;52.524;14.104;2022-07-01T08:10:39;100556.00;;;28.63;67.01
3122;BME280;1571;52.524;14.104;2022-07-01T08:13:07;100552.84;;;28.59;66.46
3122;BME280;1571;52.524;14.104;2022-07-01T08:15:35;100555.16;;;28.17;66.93
3122;BME280;1571;52.524;14.104;2022-07-01T08:18:04;100554.38;;;28.03;65.55
3122;BME280;1571;52.524;14.104;2022-07-01T08:20:33;100546.25;;;28.35;66.11
3122;BME280;1571;52.524;14.104;2022-07-01T08:23:01;100549.88;;;28.68;65.90
3122;BME280;1571;52.524;14.104;2022-07-01T08:25:30;100544.81;;;28.71;66.88
3122;BME280;1571;52.524;14.104;2022-07-01T08:28:02;100551.28;;;28.32;69.18
3122;BME280;1571;52.524;14.104;2022-07-01T08:30:31;100538.75;;;28.24;68.83
3122;BME280;1571;52.524;14.104;2022-07-01T08:32:59;100535.72;;;28.39;68.14
3122;BME280;1571;52.524;14.104;2022-07-01T08:35:29;100534.47;;;28.35;69.04
3122;BME280;1571;52.524;14.104;2022-07-01T08:37:59;100539.16;;;28.21;69.96
3122;BME280;1571;52.524;14.104;2022-07-01T08:40:27;100540.94;;;27.95;72.24
3122;BME280;1571;52.524;14.104;2022-07-01T08:42:57;100536.94;;;28.05;69.20
3122;BME280;1571;52.524;14.104;2022-07-01T08:45:26;100542.09;;;28.26;67.82
3122;BME280;1571;52.524;14.104;2022-07-01T08:47:56;100532.28;;;28.57;65.72
3122;BME280;1571;52.524;14.104;2022-07-01T08:50:28;100536.84;;;28.70;66.01
3122;BME280;1571;52.524;14.104;2022-07-01T08:52:57;100533.50;;;28.93;68.19
3122;BME280;1571;52.524;14.104;2022-07-01T08:55:27;100535.94;;;29.08;67.80
3122;BME280;1571;52.524;14.104;2022-07-01T08:57:55;100536.97;;;29.06;65.32
3122;BME280;1571;52.524;14.104;2022-07-01T09:00:29;100533.84;;;29.10;64.84
3122;BME280;1571;52.524;14.104;2022-07-01T09:02:59;100539.69;;;28.81;64.35
3122;BME280;1571;52.524;14.104;2022-07-01T09:05:29;100531.75;;;29.55;62.49
3122;BME280;1571;52.524;14.104;2022-07-01T09:08:00;100522.78;;;29.66;62.85
3122;BME280;1571;52.524;14.104;2022-07-01T09:10:31;100522.03;;;29.96;63.81
3122;BME280;1571;52.524;14.104;2022-07-01T09:13:04;100526.75;;;28.95;64.92
3122;BME280;1571;52.524;14.104;2022-07-01T09:15:33;100525.78;;;29.40;65.92
3122;BME280;1571;52.524;14.104;2022-07-01T09:18:04;100526.31;;;29.74;65.05
3122;BME280;1571;52.524;14.104;2022-07-01T09:20:34;100532.47;;;29.87;63.68
3122;BME280;1571;52.524;14.104;2022-07-01T09:23:04;100525.84;;;30.14;64.35
3122;BME280;1571;52.524;14.104;2022-07-01T09:25:37;100525.38;;;29.61;65.25
3122;BME280;1571;52.524;14.104;2022-07-01T09:28:19;100527.53;;;29.78;65.03
3122;BME280;1571;52.524;14.104;2022-07-01T09:30:49;100533.44;;;30.12;63.78
3122;BME280;1571;52.524;14.104;2022-07-01T09:33:21;100526.50;;;30.58;62.63
3122;BME280;1571;52.524;14.104;2022-07-01T09:35:50;100529.94;;;30.53;62.38
3122;BME280;1571;52.524;14.104;2022-07-01T09:38:21;100519.50;;;30.62;58.65
3122;BME280;1571;52.524;14.104;2022-07-01T09:41:02;100528.59;;;29.95;63.34
3122;BME280;1571;52.524;14.104;2022-07-01T09:43:32;100533.53;;;29.68;65.75
3122;BME280;1571;52.524;14.104;2022-07-01T09:46:03;100532.38;;;30.31;64.32
3122;BME280;1571;52.524;14.104;2022-07-01T09:48:43;100530.44;;;30.50;62.09
3122;BME280;1571;52.524;14.104;2022-07-01T09:51:14;100539.00;;;30.05;63.39
3122;BME280;1571;52.524;14.104;2022-07-01T09:53:43;100539.91;;;29.99;63.40
3122;BME280;1571;52.524;14.104;2022-07-01T09:56:13;100539.72;;;29.57;62.98
3122;BME280;1571;52.524;14.104;2022-07-01T09:58:41;100539.34;;;28.71;65.51
3122;BME280;1571;52.524;14.104;2022-07-01T10:01:11;100548.38;;;29.03;65.41
3122;BME280;1571;52.524;14.104;2022-07-01T10:03:41;100542.06;;;29.03;65.08
3122;BME280;1571;52.524;14.104;2022-07-01T10:06:24;100544.41;;;28.99;64.96
3122;BME280;1571;52.524;14.104;2022-07-01T10:09:04;100541.56;;;28.56;66.79
3122;BME280;1571;52.524;14.104;2022-07-01T10:11:56;100543.13;;;28.70;69.13
3122;BME280;1571;52.524;14.104;2022-07-01T10:14:30;100532.56;;;29.12;67.77
3122;BME280;1571;52.524;14.104;2022-07-01T10:16:59;100531.25;;;29.40;67.22
3122;BME280;1571;52.524;14.104;2022-07-01T10:19:29;100533.41;;;29.56;68.79
3122;BME280;1571;52.524;14.104;2022-07-01T10:22:00;100539.41;;;29.65;66.57
3122;BME280;1571;52.524;14.104;2022-07-01T10:24:29;100546.78;;;29.46;66.95
3122;BME280;1571;52.524;14.104;2022-07-01T10:27:19;100540.97;;;29.36;68.26
3122;BME280;1571;52.524;14.104;2022-07-01T10:29:48;100539.84;;;29.87;66.40
3122;BME280;1571;52.524;14.104;2022-07-01T10:32:26;100534.34;;;30.05;65.38
3122;BME280;1571;52.524;14.104;2022-07-01T10:35:15;100541.06;;;29.73;66.72
3122;BME280;1571;52.524;14.104;2022-07-01T10:37:59;100555.34;;;29.24;67.25
3122;BME280;1571;52.524;14.104;2022-07-01T10:40:40;100575.75;;;28.07;67.75
3122;BME280;1571;52.524;14.104;2022-07-01T10:43:16;100579.78;;;27.77;68.32
3122;BME280;1571;52.524;14.104;2022-07-01T10:45:55;100592.78;;;27.09;70.26
3122;BME280;1571;52.524;14.104;2022-07-01T10:48:24;100604.28;;;27.04;70.93
3122;BME280;1571;52.524;14.104;2022-07-01T10:50:52;100612.38;;;26.23;72.80
3122;BME280;1571;52.524;14.104;2022-07-01T10:53:21;100611.56;;;25.87;72.92
3122;BME280;1571;52.524;14.104;2022-07-01T10:55:51;100623.00;;;26.11;72.56
3122;BME280;1571;52.524;14.104;2022-07-01T10:58:38;100617.78;;;25.81;73.57
3122;BME280;1571;52.524;14.104;2022-07-01T11:01:06;100623.25;;;25.60;73.50
3122;BME280;1571;52.524;14.104;2022-07-01T11:03:35;100619.47;;;25.32;75.76
3122;BME280;1571;52.524;14.104;2022-07-01T11:06:07;100615.50;;;25.35;77.65
3122;BME280;1571;52.524;14.104;2022-07-01T11:08:35;100627.94;;;25.72;75.28
3122;BME280;1571;52.524;14.104;2022-07-01T11:11:04;100628.97;;;25.43;74.77
3122;BME280;1571;52.524;14.104;2022-07-01T11:13:35;100615.13;;;25.38;75.77
3122;BME280;1571;52.524;14.104;2022-07-01T11:16:05;100628.56;;;25.03;76.44
3122;BME280;1571;52.524;14.104;2022-07-01T11:18:33;100621.66;;;24.79;77.17
3122;BME280;1571;52.524;14.104;2022-07-01T11:21:06;100599.72;;;25.02;77.35
3122;BME280;1571;52.524;14.104;2022-07-01T11:23:35;100608.66;;;25.18;75.25
3122;BME280;1571;52.524;14.104;2022-07-01T11:26:18;100618.75;;;25.45;73.70
3122;BME280;1571;52.524;14.104;2022-07-01T11:28:46;100639.22;;;25.20;74.36
3122;BME280;1571;52.524;14.104;2022-07-01T11:31:27;100657.94;;;25.58;72.97
3122;BME280;1571;52.524;14.104;2022-07-01T11:33:56;100663.47;;;25.71;72.46
3122;BME280;1571;52.524;14.104;2022-07-01T11:36:25;100661.44;;;25.30;71.40
3122;BME280;1571;52.524;14.104;2022-07-01T11:39:11;100681.31;;;25.52;71.73
3122;BME280;1571;52.524;14.104;2022-07-01T11:41:53;100677.06;;;25.43;72.24
3122;BME280;1571;52.524;14.104;2022-07-01T11:44:31;100692.00;;;25.32;72.37
3122;BME280;1571;52.524;14.104;2022-07-01T11:47:03;100691.31;;;25.08;71.94
3122;BME280;1571;52.524;14.104;2022-07-01T11:49:32;100668.56;;;24.94;72.30
3122;BME280;1571;52.524;14.104;2022-07-01T11:52:03;100670.47;;;25.16;72.08
3122;BME280;1571;52.524;14.104;2022-07-01T11:54:35;100681.72;;;25.12;72.04
3122;BME280;1571;52.524;14.104;2022-07-01T11:57:11;100677.44;;;25.03;72.09
3122;BME280;1571;52.524;14.104;2022-07-01T11:59:40;100691.41;;;24.49;72.39
3122;BME280;1571;52.524;14.104;2022-07-01T12:02:13;100695.47;;;24.45;73.58
3122;BME280;1571;52.524;14.104;2022-07-01T12:04:41;100710.75;;;24.46;74.50
3122;BME280;1571;52.524;14.104;2022-07-01T12:07:11;100708.16;;;23.85;75.41
3122;BME280;1571;52.524;14.104;2022-07-01T12:09:40;100739.16;;;24.20;76.74
3122;BME280;1571;52.524;14.104;2022-07-01T12:12:15;100752.88;;;23.35;77.53
3122;BME280;1571;52.524;14.104;2022-07-01T12:14:50;100753.44;;;22.27;80.28
3122;BME280;1571;52.524;14.104;2022-07-01T12:17:21;100736.88;;;22.13;83.87
3122;BME280;1571;52.524;14.104;2022-07-01T12:19:52;100735.38;;;22.02;84.28
3122;BME280;1571;52.524;14.104;2022-07-01T12:22:22;100730.16;;;21.76;84.20
3122;BME280;1571;52.524;14.104;2022-07-01T12:24:52;100716.63;;;21.52;85.70
3122;BME280;1571;52.524;14.104;2022-07-01T12:27:22;100701.78;;;21.72;85.64
3122;BME280;1571;52.524;14.104;2022-07-01T12:29:53;100704.78;;;22.18;83.43
3122;BME280;1571;52.524;14.104;2022-07-01T12:32:24;100679.06;;;22.39;82.07
3122;BME280;1571;52.524;14.104;2022-07-01T12:34:56;100667.72;;;22.43;80.75
3122;BME280;1571;52.524;14.104;2022-07-01T12:37:29;100657.09;;;22.73;81.39
3122;BME280;1571;52.524;14.104;2022-07-01T12:39:59;100660.91;;;23.41;79.62
3122;BME280;1571;52.524;14.104;2022-07-01T12:42:31;100687.59;;;23.67;78.02
3122;BME280;1571;52.524;14.104;2022-07-01T12:45:02;100707.66;;;23.81;77.55
3122;BME280;1571;52.524;14.104;2022-07-01T12:47:34;100736.16;;;23.54;76.11
3122;BME280;1571;52.524;14.104;2022-07-01T12:50:11;100750.94;;;23.43;77.88
3122;BME280;1571;52.524;14.104;2022-07-01T12:52:42;100763.66;;;23.66;76.51
3122;BME280;1571;52.524;14.104;2022-07-01T12:55:18;100759.41;;;23.48;76.32
3122;BME280;1571;52.524;14.104;2022-07-01T12:57:48;100766.19;;;23.76;76.90
3122;BME280;1571;52.524;14.104;2022-07-01T13:00:18;100767.41;;;24.26;74.91
3122;BME280;1571;52.524;14.104;2022-07-01T13:02:51;100760.13;;;24.12;74.19
3122;BME280;1571;52.524;14.104;2022-07-01T13:05:20;100749.63;;;24.08;74.47
3122;BME280;1571;52.524;14.104;2022-07-01T13:07:49;100743.34;;;24.08;74.16
3122;BME280;1571;52.524;14.104;2022-07-01T13:10:19;100747.03;;;24.30;74.29
3122;BME280;1571;52.524;14.104;2022-07-01T13:12:48;100757.59;;;24.40;73.07